createdAt,value
2023-09-29T00:00:07.647Z,100469.63
2023-09-29T00:01:09.840Z,100459.88
2023-09-29T00:02:11.979Z,100460.94
2023-09-29T00:03:14.754Z,100455.63
2023-09-29T00:04:16.913Z,100462.84
2023-09-29T00:05:20.430Z,100462.06
2023-09-29T00:06:22.480Z,100458.53
2023-09-29T00:07:24.666Z,100454.13
2023-09-29T00:08:26.773Z,100458.59
2023-09-29T00:09:29.286Z,100452.31
2023-09-29T00:10:32.163Z,100462.91
2023-09-29T00:11:34.859Z,100453.09
2023-09-29T00:12:40.980Z,100453.88
2023-09-29T00:13:43.151Z,100449.50
2023-09-29T00:14:45.292Z,100445.97
2023-09-29T00:15:50.703Z,100448.56
2023-09-29T00:16:52.755Z,100444.78
2023-09-29T00:17:54.892Z,100447.28
2023-09-29T00:18:57.359Z,100444.63
2023-09-29T00:20:00.927Z,100444.78
2023-09-29T00:21:02.877Z,100447.53
2023-09-29T00:22:05.476Z,100446.69
2023-09-29T00:23:07.881Z,100445.03
2023-09-29T00:24:09.932Z,100440.53
2023-09-29T00:25:12.042Z,100442.19
2023-09-29T00:26:14.598Z,100439.44
2023-09-29T00:27:16.648Z,100437.72
2023-09-29T00:28:18.825Z,100455.56
2023-09-29T00:29:20.893Z,100446.75
2023-09-29T00:30:23.458Z,100445.88
2023-09-29T00:31:25.478Z,100446.88
2023-09-29T00:32:27.817Z,100443.34
2023-09-29T00:33:29.967Z,100442.50
2023-09-29T00:34:32.817Z,100443.34
2023-09-29T00:35:35.071Z,100447.84
2023-09-29T00:36:37.511Z,100451.38
2023-09-29T00:37:41.820Z,100451.31
2023-09-29T00:38:44.027Z,100447.75
2023-09-29T00:39:46.120Z,100452.16
2023-09-29T00:42:12.628Z,100453.88
2023-09-29T00:43:17.090Z,100447.59
2023-09-29T00:44:20.585Z,100451.16
2023-09-29T00:45:28.005Z,100444.06
2023-09-29T00:46:30.752Z,100451.16
2023-09-29T00:47:33.882Z,100441.50
2023-09-29T00:48:39.812Z,100441.50
2023-09-29T00:49:42.200Z,100445.06
2023-09-29T00:50:46.626Z,100445.97
2023-09-29T00:51:49.606Z,100449.50
2023-09-29T00:52:55.864Z,100452.09
2023-09-29T00:53:59.171Z,100448.50
2023-09-29T00:55:01.394Z,100452.16
2023-09-29T00:56:04.064Z,100444.16
2023-09-29T00:57:07.355Z,100445.88
2023-09-29T00:58:10.533Z,100452.94
2023-09-29T00:59:12.584Z,100445.06
2023-09-29T01:00:35.272Z,100440.63
2023-09-29T01:01:37.629Z,100447.53
2023-09-29T01:02:40.000Z,100451.06
2023-09-29T01:03:42.142Z,100446.84
2023-09-29T01:04:44.348Z,100444.16
2023-09-29T01:05:49.458Z,100445.06
2023-09-29T01:06:52.253Z,100446.97
2023-09-29T01:07:54.432Z,100446.97
2023-09-29T01:08:58.270Z,100443.50
2023-09-29T01:10:00.258Z,100440.69
2023-09-29T01:11:04.986Z,100441.78
2023-09-29T01:12:10.635Z,100449.00
2023-09-29T01:13:14.175Z,100459.69
2023-09-29T01:14:16.479Z,100456.22
2023-09-29T01:15:20.597Z,100461.56
2023-09-29T01:16:22.882Z,100454.50
2023-09-29T01:17:26.800Z,100458.97
2023-09-29T01:18:30.545Z,100452.63
2023-09-29T01:19:33.062Z,100455.34
2023-09-29T01:20:36.024Z,100449.16
2023-09-29T01:21:38.205Z,100448.34
2023-09-29T01:22:49.088Z,100453.69
2023-09-29T01:23:52.344Z,100457.31
2023-09-29T01:24:54.638Z,100456.53
2023-09-29T01:25:57.011Z,100455.59
2023-09-29T01:27:01.225Z,100448.44
2023-09-29T01:28:06.746Z,100451.97
2023-09-29T01:29:09.128Z,100450.16
2023-09-29T01:30:15.159Z,100448.44
2023-09-29T01:31:17.440Z,100457.47
2023-09-29T01:32:19.477Z,100453.13
2023-09-29T01:33:25.244Z,100456.81
2023-09-29T01:34:32.373Z,100449.81
2023-09-29T01:35:34.773Z,100447.25
2023-09-29T01:36:38.026Z,100449.09
2023-09-29T01:37:40.268Z,100447.28
2023-09-29T01:38:43.922Z,100446.38
2023-09-29T01:39:45.961Z,100450.56
2023-09-29T01:40:48.054Z,100452.44
2023-09-29T01:41:50.380Z,100450.72
2023-09-29T01:42:53.228Z,100445.38
2023-09-29T01:43:55.761Z,100445.38
2023-09-29T01:44:57.982Z,100448.03
2023-09-29T01:46:01.967Z,100444.56
2023-09-29T01:47:04.014Z,100443.41
2023-09-29T01:48:06.738Z,100439.13
2023-09-29T01:49:08.981Z,100437.41
2023-09-29T01:50:16.237Z,100445.44
2023-09-29T01:51:19.055Z,100437.50
2023-09-29T01:52:23.500Z,100439.22
2023-09-29T01:53:29.448Z,100433.88
2023-09-29T01:54:32.824Z,100438.38
2023-09-29T01:55:34.990Z,100438.44
2023-09-29T01:56:37.118Z,100443.78
2023-09-29T01:57:40.123Z,100447.38
2023-09-29T01:58:42.164Z,100447.44
2023-09-29T01:59:44.495Z,100444.88
2023-09-29T02:00:47.963Z,100442.25
2023-09-29T02:01:50.420Z,100443.13
2023-09-29T02:02:54.996Z,100444.94
2023-09-29T02:03:57.644Z,100441.47
2023-09-29T02:04:59.896Z,100438.00
2023-09-29T02:06:04.179Z,100445.16
2023-09-29T02:07:06.304Z,100437.31
2023-09-29T02:08:11.200Z,100439.16
2023-09-29T02:09:13.240Z,100435.63
2023-09-29T02:10:20.494Z,100437.44
2023-09-29T02:11:23.320Z,100437.59
2023-09-29T02:12:25.685Z,100436.66
2023-09-29T02:13:28.162Z,100433.19
2023-09-29T02:14:52.212Z,100439.41
2023-09-29T02:15:54.487Z,100428.78
2023-09-29T02:16:56.737Z,100431.59
2023-09-29T02:17:59.904Z,100431.66
2023-09-29T02:19:05.209Z,100431.66
2023-09-29T02:20:16.676Z,100435.38
2023-09-29T02:21:28.799Z,100431.03
2023-09-29T02:22:32.014Z,100424.03
2023-09-29T02:23:39.581Z,100430.31
2023-09-29T02:24:41.940Z,100438.47
2023-09-29T02:25:45.543Z,100442.00
2023-09-29T02:26:47.957Z,100441.13
2023-09-29T02:27:49.999Z,100435.00
2023-09-29T02:28:52.264Z,100431.47
2023-09-29T02:29:54.233Z,100434.19
2023-09-29T02:30:57.828Z,100427.91
2023-09-29T02:32:00.166Z,100434.13
2023-09-29T02:33:03.412Z,100435.91
2023-09-29T02:34:05.606Z,100432.47
2023-09-29T02:35:09.360Z,100428.94
2023-09-29T02:36:11.307Z,100442.28
2023-09-29T02:37:13.509Z,100435.16
2023-09-29T02:38:15.451Z,100438.78
2023-09-29T02:39:17.616Z,100438.66
2023-09-29T02:40:20.637Z,100431.53
2023-09-29T02:41:22.754Z,100428.94
2023-09-29T02:42:25.364Z,100424.50
2023-09-29T02:43:31.584Z,100429.84
2023-09-29T02:44:35.132Z,100421.91
2023-09-29T02:45:41.460Z,100425.50
2023-09-29T02:46:43.543Z,100430.84
2023-09-29T02:47:49.250Z,100432.59
2023-09-29T02:48:51.694Z,100427.25
2023-09-29T02:49:53.838Z,100429.84
2023-09-29T02:50:56.426Z,100429.81
2023-09-29T02:51:58.606Z,100423.38
2023-09-29T02:53:00.547Z,100429.44
2023-09-29T02:54:05.031Z,100429.38
2023-09-29T02:55:09.804Z,100430.94
2023-09-29T02:56:13.220Z,100435.13
2023-09-29T02:57:15.579Z,100427.84
2023-09-29T02:58:18.448Z,100433.03
2023-09-29T02:59:21.883Z,100427.47
2023-09-29T03:00:28.078Z,100432.59
2023-09-29T03:01:30.049Z,100423.41
2023-09-29T03:02:32.100Z,100427.59
2023-09-29T03:03:34.401Z,100430.81
2023-09-29T03:04:40.522Z,100426.22
2023-09-29T03:05:44.423Z,100426.06
2023-09-29T03:06:47.339Z,100424.91
2023-09-29T03:07:50.091Z,100421.13
2023-09-29T03:08:56.539Z,100427.03
2023-09-29T03:09:58.710Z,100421.38
2023-09-29T03:11:00.687Z,100424.69
2023-09-29T03:12:02.916Z,100429.78
2023-09-29T03:13:05.252Z,100425.94
2023-09-29T03:14:07.916Z,100432.72
2023-09-29T03:15:17.069Z,100430.66
2023-09-29T03:16:19.755Z,100438.19
2023-09-29T03:17:22.232Z,100437.00
2023-09-29T03:18:24.399Z,100436.56
2023-09-29T03:19:28.169Z,100432.56
2023-09-29T03:20:30.445Z,100423.13
2023-09-29T03:21:34.158Z,100423.47
2023-09-29T03:22:39.015Z,100424.78
2023-09-29T03:23:41.131Z,100427.13
2023-09-29T03:24:44.254Z,100424.13
2023-09-29T03:25:47.629Z,100420.94
2023-09-29T03:26:50.606Z,100419.56
2023-09-29T03:27:52.778Z,100415.59
2023-09-29T03:28:57.783Z,100414.56
2023-09-29T03:30:00.582Z,100420.88
2023-09-29T03:31:11.481Z,100419.41
2023-09-29T03:32:13.653Z,100419.16
2023-09-29T03:33:15.629Z,100420.63
2023-09-29T03:34:17.797Z,100425.63
2023-09-29T03:35:19.866Z,100423.56
2023-09-29T03:36:21.977Z,100424.47
2023-09-29T03:37:24.621Z,100421.50
2023-09-29T03:38:28.195Z,100414.16
2023-09-29T03:39:30.166Z,100426.50
2023-09-29T03:40:33.406Z,100424.97
2023-09-29T03:41:35.906Z,100426.88
2023-09-29T03:42:39.605Z,100430.31
2023-09-29T03:43:42.644Z,100431.69
2023-09-29T03:44:45.824Z,100429.44
2023-09-29T03:45:48.116Z,100426.34
2023-09-29T03:46:50.191Z,100431.59
2023-09-29T03:47:52.768Z,100433.41
2023-09-29T03:48:55.353Z,100432.00
2023-09-29T03:49:57.620Z,100435.28
2023-09-29T03:51:04.132Z,100430.59
2023-09-29T03:52:10.206Z,100433.59
2023-09-29T03:53:12.373Z,100426.22
2023-09-29T03:54:14.418Z,100428.66
2023-09-29T03:55:17.568Z,100425.50
2023-09-29T03:56:24.473Z,100432.91
2023-09-29T03:57:27.895Z,100429.84
2023-09-29T03:58:30.015Z,100421.44
2023-09-29T03:59:32.446Z,100427.19
2023-09-29T04:00:34.702Z,100424.16
2023-09-29T04:01:37.203Z,100433.75
2023-09-29T04:02:41.597Z,100428.09
2023-09-29T04:03:44.222Z,100432.97
2023-09-29T04:04:46.317Z,100434.53
2023-09-29T04:05:48.516Z,100435.19
2023-09-29T04:06:51.016Z,100431.81
2023-09-29T04:07:53.220Z,100438.56
2023-09-29T04:08:56.139Z,100433.19
2023-09-29T04:09:58.430Z,100443.16
2023-09-29T04:11:00.616Z,100437.97
2023-09-29T04:12:02.962Z,100443.44
2023-09-29T04:13:05.339Z,100441.81
2023-09-29T04:14:11.032Z,100448.81
2023-09-29T04:15:20.304Z,100440.00
2023-09-29T04:16:23.175Z,100437.38
2023-09-29T04:17:25.403Z,100436.09
2023-09-29T04:18:27.625Z,100439.41
2023-09-29T04:19:29.864Z,100440.97
2023-09-29T04:20:33.064Z,100442.31
2023-09-29T04:21:34.990Z,100443.81
2023-09-29T04:22:37.551Z,100443.25
2023-09-29T04:23:39.707Z,100440.47
2023-09-29T04:24:41.727Z,100443.00
2023-09-29T04:25:45.068Z,100452.41
2023-09-29T04:26:47.209Z,100443.91
2023-09-29T04:27:49.304Z,100438.63
2023-09-29T04:28:52.125Z,100441.25
2023-09-29T04:29:54.265Z,100439.91
2023-09-29T04:30:56.347Z,100447.56
2023-09-29T04:31:58.481Z,100441.09
2023-09-29T04:33:00.635Z,100447.28
2023-09-29T04:34:02.754Z,100445.31
2023-09-29T04:35:06.577Z,100444.03
2023-09-29T04:36:08.712Z,100446.03
2023-09-29T04:37:10.935Z,100441.47
2023-09-29T04:38:13.012Z,100444.69
2023-09-29T04:39:16.509Z,100446.66
2023-09-29T04:40:18.630Z,100438.16
2023-09-29T04:41:20.828Z,100439.72
2023-09-29T04:42:23.093Z,100445.63
2023-09-29T04:43:24.986Z,100436.22
2023-09-29T04:44:27.179Z,100435.13
2023-09-29T04:45:29.407Z,100434.00
2023-09-29T04:46:31.561Z,100431.72
2023-09-29T04:47:34.125Z,100432.03
2023-09-29T04:48:36.606Z,100440.47
2023-09-29T04:49:38.878Z,100428.88
2023-09-29T04:50:41.370Z,100427.13
2023-09-29T04:51:44.916Z,100432.28
2023-09-29T04:52:46.926Z,100434.94
2023-09-29T04:53:48.905Z,100427.31
2023-09-29T04:54:51.023Z,100423.97
2023-09-29T04:55:53.093Z,100423.66
2023-09-29T04:56:55.248Z,100421.31
2023-09-29T04:57:57.336Z,100423.88
2023-09-29T04:58:59.298Z,100418.50
2023-09-29T05:00:01.355Z,100421.56
2023-09-29T05:01:04.320Z,100430.22
2023-09-29T05:02:07.000Z,100422.72
2023-09-29T05:03:09.321Z,100428.09
2023-09-29T05:04:11.427Z,100427.13
2023-09-29T05:05:13.967Z,100434.63
2023-09-29T05:06:16.043Z,100420.66
2023-09-29T05:07:18.177Z,100429.19
2023-09-29T05:08:20.077Z,100424.91
2023-09-29T05:09:22.454Z,100419.56
2023-09-29T05:10:24.490Z,100431.75
2023-09-29T05:11:30.197Z,100434.13
2023-09-29T05:12:34.246Z,100424.72
2023-09-29T05:13:36.358Z,100430.81
2023-09-29T05:14:38.276Z,100434.25
2023-09-29T05:15:40.426Z,100428.13
2023-09-29T05:16:42.758Z,100432.75
2023-09-29T05:17:50.704Z,100429.78
2023-09-29T05:18:55.926Z,100425.09
2023-09-29T05:19:58.373Z,100423.75
2023-09-29T05:21:00.736Z,100426.97
2023-09-29T05:22:02.804Z,100431.00
2023-09-29T05:23:04.929Z,100432.97
2023-09-29T05:24:07.614Z,100431.34
2023-09-29T05:25:10.185Z,100432.69
2023-09-29T05:26:12.550Z,100439.88
2023-09-29T05:27:14.812Z,100435.56
2023-09-29T05:28:16.887Z,100432.09
2023-09-29T05:29:18.779Z,100429.34
2023-09-29T05:30:21.036Z,100439.81
2023-09-29T05:31:23.397Z,100443.19
2023-09-29T05:32:25.913Z,100431.44
2023-09-29T05:33:27.900Z,100439.66
2023-09-29T05:34:30.298Z,100437.94
2023-09-29T05:35:32.807Z,100434.81
2023-09-29T05:36:35.001Z,100438.72
2023-09-29T05:37:37.105Z,100428.97
2023-09-29T05:38:39.272Z,100438.22
2023-09-29T05:39:41.667Z,100434.19
2023-09-29T05:40:43.870Z,100434.38
2023-09-29T05:41:45.884Z,100429.75
2023-09-29T05:42:53.127Z,100436.34
2023-09-29T05:43:56.397Z,100429.16
2023-09-29T05:44:58.628Z,100435.97
2023-09-29T05:46:00.526Z,100431.69
2023-09-29T05:47:02.634Z,100430.13
2023-09-29T05:48:05.668Z,100429.75
2023-09-29T05:49:07.863Z,100429.94
2023-09-29T05:50:18.327Z,100431.59
2023-09-29T05:51:21.547Z,100424.72
2023-09-29T05:52:23.568Z,100426.84
2023-09-29T05:53:25.618Z,100422.66
2023-09-29T05:54:27.757Z,100425.38
2023-09-29T05:55:29.829Z,100422.09
2023-09-29T05:56:34.534Z,100430.63
2023-09-29T05:57:37.768Z,100423.97
2023-09-29T05:58:40.305Z,100429.78
2023-09-29T05:59:42.779Z,100423.91
2023-09-29T06:00:44.694Z,100421.97
2023-09-29T06:01:47.425Z,100430.69
2023-09-29T06:02:50.165Z,100428.84
2023-09-29T06:03:55.952Z,100427.06
2023-09-29T06:04:57.975Z,100428.97
2023-09-29T06:06:00.359Z,100422.66
2023-09-29T06:07:02.437Z,100412.59
2023-09-29T06:08:04.710Z,100419.03
2023-09-29T06:09:07.918Z,100417.69
2023-09-29T06:10:11.214Z,100418.31
2023-09-29T06:11:13.874Z,100419.41
2023-09-29T06:12:15.871Z,100411.38
2023-09-29T06:13:17.742Z,100416.56
2023-09-29T06:14:19.678Z,100418.47
2023-09-29T06:15:21.720Z,100423.84
2023-09-29T06:16:24.045Z,100425.75
2023-09-29T06:17:26.235Z,100427.63
2023-09-29T06:18:28.678Z,100424.09
2023-09-29T06:19:30.770Z,100420.56
2023-09-29T06:20:33.115Z,100431.00
2023-09-29T06:21:35.031Z,100425.44
2023-09-29T06:22:37.202Z,100417.41
2023-09-29T06:23:39.098Z,100426.22
2023-09-29T06:24:41.535Z,100420.63
2023-09-29T06:25:43.467Z,100429.78
2023-09-29T06:26:45.528Z,100419.91
2023-09-29T06:27:47.852Z,100430.75
2023-09-29T06:28:49.912Z,100433.84
2023-09-29T06:29:52.050Z,100427.16
2023-09-29T06:30:57.197Z,100425.69
2023-09-29T06:31:59.363Z,100424.91
2023-09-29T06:33:01.462Z,100427.59
2023-09-29T06:34:03.879Z,100420.88
2023-09-29T06:35:06.497Z,100426.84
2023-09-29T06:36:08.508Z,100424.81
2023-09-29T06:37:10.569Z,100420.06
2023-09-29T06:38:12.570Z,100424.56
2023-09-29T06:39:15.489Z,100427.16
2023-09-29T06:40:17.585Z,100421.72
2023-09-29T06:41:19.586Z,100424.97
2023-09-29T06:42:21.667Z,100425.44
2023-09-29T06:43:24.008Z,100424.34
2023-09-29T06:44:26.114Z,100422.31
2023-09-29T06:45:45.843Z,100422.31
2023-09-29T06:46:53.258Z,100416.88
2023-09-29T06:47:55.604Z,100423.78
2023-09-29T06:48:57.672Z,100425.06
2023-09-29T06:49:59.753Z,100422.94
2023-09-29T06:51:02.329Z,100416.00
2023-09-29T06:52:05.300Z,100423.72
2023-09-29T06:53:07.353Z,100421.41
2023-09-29T06:54:09.605Z,100419.34
2023-09-29T06:55:11.849Z,100412.16
2023-09-29T06:56:13.916Z,100412.75
2023-09-29T06:57:15.924Z,100425.50
2023-09-29T06:58:18.142Z,100419.28
2023-09-29T06:59:20.119Z,100422.06
2023-09-29T07:00:22.078Z,100419.28
2023-09-29T07:01:23.953Z,100427.06
2023-09-29T07:02:25.953Z,100420.28
2023-09-29T07:03:31.407Z,100420.84
2023-09-29T07:04:34.360Z,100418.16
2023-09-29T07:05:36.317Z,100427.47
2023-09-29T07:06:38.529Z,100424.91
2023-09-29T07:07:41.091Z,100422.03
2023-09-29T07:08:43.132Z,100426.22
2023-09-29T07:09:45.261Z,100428.13
2023-09-29T07:10:47.397Z,100421.13
2023-09-29T07:11:49.360Z,100420.88
2023-09-29T07:12:51.469Z,100430.22
2023-09-29T07:13:53.697Z,100433.38
2023-09-29T07:14:56.051Z,100433.56
2023-09-29T07:15:58.096Z,100428.88
2023-09-29T07:17:00.372Z,100428.38
2023-09-29T07:18:02.633Z,100431.06
2023-09-29T07:19:05.046Z,100434.44
2023-09-29T07:20:07.888Z,100419.75
2023-09-29T07:21:10.400Z,100437.59
2023-09-29T07:22:12.525Z,100434.59
2023-09-29T07:23:14.622Z,100429.97
2023-09-29T07:24:18.069Z,100433.31
2023-09-29T07:25:20.311Z,100426.97
2023-09-29T07:26:22.857Z,100432.72
2023-09-29T07:27:26.006Z,100423.53
2023-09-29T07:28:27.953Z,100433.09
2023-09-29T07:29:30.052Z,100440.94
2023-09-29T07:30:32.147Z,100431.88
2023-09-29T07:31:38.414Z,100435.81
2023-09-29T07:32:42.937Z,100429.19
2023-09-29T07:33:45.508Z,100428.25
2023-09-29T07:34:47.563Z,100431.00
2023-09-29T07:35:49.589Z,100427.19
2023-09-29T07:36:51.596Z,100431.25
2023-09-29T07:37:53.788Z,100428.09
2023-09-29T07:38:55.899Z,100424.94
2023-09-29T07:39:59.479Z,100431.28
2023-09-29T07:41:06.021Z,100439.50
2023-09-29T07:42:08.096Z,100432.00
2023-09-29T07:43:10.324Z,100426.84
2023-09-29T07:44:12.458Z,100421.47
2023-09-29T07:45:14.611Z,100432.00
2023-09-29T07:46:16.889Z,100425.88
2023-09-29T07:47:19.286Z,100411.78
2023-09-29T07:48:22.957Z,100434.69
2023-09-29T07:49:26.187Z,100432.53
2023-09-29T07:50:28.243Z,100432.03
2023-09-29T07:51:31.240Z,100446.97
2023-09-29T07:52:33.291Z,100431.72
2023-09-29T07:53:35.275Z,100430.00
2023-09-29T07:54:37.359Z,100435.00
2023-09-29T07:55:39.596Z,100439.22
2023-09-29T07:56:41.789Z,100439.13
2023-09-29T07:57:43.873Z,100427.13
2023-09-29T07:58:46.037Z,100435.84
2023-09-29T07:59:48.061Z,100438.53
2023-09-29T08:00:50.006Z,100445.25
2023-09-29T08:01:52.856Z,100448.88
2023-09-29T08:02:55.109Z,100440.84
2023-09-29T08:03:58.715Z,100440.94
2023-09-29T08:05:01.035Z,100442.69
2023-09-29T08:06:03.391Z,100446.22
2023-09-29T08:07:06.226Z,100453.69
2023-09-29T08:08:08.293Z,100437.66
2023-09-29T08:09:10.861Z,100448.50
2023-09-29T08:10:13.040Z,100449.03
2023-09-29T08:11:15.590Z,100445.03
2023-09-29T08:12:18.532Z,100447.09
2023-09-29T08:13:20.538Z,100440.88
2023-09-29T08:14:22.479Z,100443.19
2023-09-29T08:15:26.028Z,100435.00
2023-09-29T08:16:28.319Z,100442.72
2023-09-29T08:17:30.764Z,100442.34
2023-09-29T08:18:32.850Z,100449.19
2023-09-29T08:19:35.526Z,100446.50
2023-09-29T08:20:37.638Z,100440.66
2023-09-29T08:21:40.345Z,100445.56
2023-09-29T08:22:43.080Z,100441.44
2023-09-29T08:23:45.446Z,100444.50
2023-09-29T08:24:47.541Z,100446.41
2023-09-29T08:25:49.602Z,100442.88
2023-09-29T08:26:51.737Z,100449.47
2023-09-29T08:27:53.804Z,100446.41
2023-09-29T08:28:58.605Z,100446.41
2023-09-29T08:30:00.858Z,100447.34
2023-09-29T08:31:03.837Z,100441.56
2023-09-29T08:32:06.378Z,100442.91
2023-09-29T08:33:17.701Z,100446.34
2023-09-29T08:34:25.756Z,100451.00
2023-09-29T08:35:29.340Z,100446.78
2023-09-29T08:36:31.481Z,100446.41
2023-09-29T08:37:33.692Z,100452.75
2023-09-29T08:38:35.810Z,100445.34
2023-09-29T08:39:38.811Z,100440.84
2023-09-29T08:40:41.966Z,100448.63
2023-09-29T08:41:49.726Z,100448.91
2023-09-29T08:42:52.124Z,100444.56
2023-09-29T08:44:06.123Z,100449.56
2023-09-29T08:45:13.347Z,100445.69
2023-09-29T08:46:17.183Z,100446.91
2023-09-29T08:47:27.087Z,100457.09
2023-09-29T08:48:30.822Z,100447.09
2023-09-29T08:50:42.615Z,100454.78
2023-09-29T08:51:48.116Z,100442.53
2023-09-29T08:52:52.332Z,100448.75
2023-09-29T08:53:57.834Z,100448.31
2023-09-29T08:55:01.019Z,100449.34
2023-09-29T08:56:12.764Z,100454.25
2023-09-29T08:57:17.161Z,100449.47
2023-09-29T08:58:20.079Z,100460.59
2023-09-29T08:59:23.444Z,100451.66
2023-09-29T09:00:28.128Z,100465.59
2023-09-29T09:01:31.546Z,100463.69
2023-09-29T09:02:33.824Z,100464.59
2023-09-29T09:03:36.902Z,100460.97
2023-09-29T09:04:39.229Z,100457.91
2023-09-29T09:05:41.954Z,100468.94
2023-09-29T09:06:44.039Z,100468.81
2023-09-29T09:07:46.096Z,100469.66
2023-09-29T09:08:49.789Z,100457.91
2023-09-29T09:09:55.346Z,100469.47
2023-09-29T09:11:02.205Z,100469.59
2023-09-29T09:12:04.408Z,100462.69
2023-09-29T09:13:07.036Z,100468.28
2023-09-29T09:14:11.399Z,100461.75
2023-09-29T09:15:13.426Z,100460.00
2023-09-29T09:16:15.353Z,100458.72
2023-09-29T09:17:18.213Z,100458.81
2023-09-29T09:18:20.469Z,100457.28
2023-09-29T09:19:22.765Z,100461.84
2023-09-29T09:20:25.228Z,100454.75
2023-09-29T09:21:34.324Z,100461.56
2023-09-29T09:22:46.389Z,100450.66
2023-09-29T09:23:49.440Z,100450.66
2023-09-29T09:24:52.739Z,100459.97
2023-09-29T09:25:55.672Z,100463.25
2023-09-29T09:27:02.760Z,100449.63
2023-09-29T09:28:06.811Z,100465.88
2023-09-29T09:29:10.029Z,100459.25
2023-09-29T09:30:23.288Z,100459.84
2023-09-29T09:31:25.414Z,100462.91
2023-09-29T09:32:28.763Z,100462.13
2023-09-29T09:33:32.680Z,100459.84
2023-09-29T09:34:35.357Z,100471.72
2023-09-29T09:35:39.423Z,100468.44
2023-09-29T09:36:53.760Z,100474.97
2023-09-29T09:37:56.795Z,100470.97
2023-09-29T09:39:04.807Z,100461.75
2023-09-29T09:40:13.643Z,100468.16
2023-09-29T09:41:18.158Z,100480.81
2023-09-29T09:42:21.581Z,100478.69
2023-09-29T09:43:26.503Z,100475.75
2023-09-29T09:44:28.840Z,100472.28
2023-09-29T09:45:39.130Z,100472.84
2023-09-29T09:46:42.152Z,100474.09
2023-09-29T09:47:47.973Z,100476.69
2023-09-29T09:49:09.019Z,100479.97
2023-09-29T09:50:13.102Z,100481.22
2023-09-29T09:51:35.846Z,100486.38
2023-09-29T09:52:39.089Z,100488.47
2023-09-29T09:53:41.382Z,100492.03
2023-09-29T09:54:49.596Z,100489.06
2023-09-29T09:56:05.355Z,100479.00
2023-09-29T09:57:12.671Z,100476.13
2023-09-29T09:58:18.171Z,100492.03
2023-09-29T09:59:20.706Z,100482.66
2023-09-29T10:00:25.877Z,100489.81
2023-09-29T10:01:29.341Z,100483.91
2023-09-29T10:02:34.615Z,100474.97
2023-09-29T10:03:39.295Z,100481.69
2023-09-29T10:04:44.754Z,100486.47
2023-09-29T10:05:53.691Z,100476.78
2023-09-29T10:06:58.540Z,100484.97
2023-09-29T10:08:04.437Z,100486.47
2023-09-29T10:09:11.515Z,100479.03
2023-09-29T10:10:33.443Z,100484.09
2023-09-29T10:11:35.779Z,100482.66
2023-09-29T10:12:37.886Z,100485.72
2023-09-29T10:13:46.208Z,100473.34
2023-09-29T10:14:49.270Z,100486.66
2023-09-29T10:16:03.493Z,100476.09
2023-09-29T10:17:07.473Z,100482.38
2023-09-29T10:18:19.398Z,100476.13
2023-09-29T10:19:21.583Z,100488.50
2023-09-29T10:20:25.995Z,100485.44
2023-09-29T10:21:35.219Z,100467.69
2023-09-29T10:22:37.889Z,100493.56
2023-09-29T10:23:47.317Z,100486.44
2023-09-29T10:24:49.501Z,100486.19
2023-09-29T10:26:05.769Z,100490.31
2023-09-29T10:27:13.347Z,100493.50
2023-09-29T10:28:18.860Z,100488.59
2023-09-29T10:29:27.916Z,100493.78
2023-09-29T10:30:30.505Z,100488.94
2023-09-29T10:31:32.493Z,100489.63
2023-09-29T10:32:36.600Z,100492.38
2023-09-29T10:33:55.466Z,100488.94
2023-09-29T10:35:06.518Z,100485.75
2023-09-29T10:36:10.891Z,100499.84
2023-09-29T10:37:13.026Z,100485.09
2023-09-29T10:38:29.392Z,100495.88
2023-09-29T10:39:32.148Z,100489.44
2023-09-29T10:40:34.725Z,100499.53
2023-09-29T10:41:38.806Z,100497.81
2023-09-29T10:42:43.584Z,100495.97
2023-09-29T10:43:50.458Z,100507.19
2023-09-29T10:44:54.765Z,100493.19
2023-09-29T10:45:57.532Z,100492.31
2023-09-29T10:47:02.509Z,100487.91
2023-09-29T10:48:08.942Z,100498.25
2023-09-29T10:49:11.675Z,100497.59
2023-09-29T10:50:13.999Z,100493.66
2023-09-29T10:51:31.867Z,100504.59
2023-09-29T10:52:37.354Z,100506.41
2023-09-29T10:53:40.229Z,100509.09
2023-09-29T10:54:45.178Z,100502.53
2023-09-29T10:55:49.408Z,100508.44
2023-09-29T10:56:51.598Z,100514.16
2023-09-29T10:57:53.974Z,100509.66
2023-09-29T10:58:56.903Z,100510.03
2023-09-29T11:00:01.512Z,100512.28
2023-09-29T11:01:05.626Z,100514.25
2023-09-29T11:02:09.448Z,100514.66
2023-09-29T11:03:14.931Z,100515.63
2023-09-29T11:04:17.504Z,100519.25
2023-09-29T11:05:22.200Z,100511.81
2023-09-29T11:06:25.371Z,100519.06
2023-09-29T11:07:30.918Z,100515.81
2023-09-29T11:08:40.204Z,100516.00
2023-09-29T11:09:42.149Z,100509.66
2023-09-29T11:10:54.799Z,100522.81
2023-09-29T11:11:57.022Z,100520.38
2023-09-29T11:12:59.191Z,100505.00
2023-09-29T11:14:01.891Z,100518.59
2023-09-29T11:15:09.725Z,100517.97
2023-09-29T11:16:18.469Z,100523.81
2023-09-29T11:17:20.676Z,100523.63
2023-09-29T11:18:31.523Z,100521.91
2023-09-29T11:19:33.880Z,100527.09
2023-09-29T11:20:35.851Z,100522.31
2023-09-29T11:21:38.794Z,100527.78
2023-09-29T11:22:40.968Z,100525.09
2023-09-29T11:23:48.863Z,100518.41
2023-09-29T11:24:52.412Z,100534.53
2023-09-29T11:25:59.338Z,100528.69
2023-09-29T11:27:02.305Z,100526.00
2023-09-29T11:28:04.653Z,100524.25
2023-09-29T11:29:07.071Z,100522.06
2023-09-29T11:30:10.866Z,100520.06
2023-09-29T11:31:14.005Z,100526.28
2023-09-29T11:32:19.619Z,100534.34
2023-09-29T11:33:22.100Z,100529.53
2023-09-29T11:34:24.449Z,100528.88
2023-09-29T11:35:29.998Z,100535.28
2023-09-29T11:36:31.985Z,100529.25
2023-09-29T11:37:34.209Z,100526.56
2023-09-29T11:38:36.313Z,100524.16
2023-09-29T11:39:38.345Z,100525.91
2023-09-29T11:40:40.314Z,100534.72
2023-09-29T11:41:42.390Z,100526.69
2023-09-29T11:42:46.738Z,100516.47
2023-09-29T11:43:49.478Z,100528.09
2023-09-29T11:44:51.486Z,100526.16
2023-09-29T11:45:54.281Z,100530.41
2023-09-29T11:46:56.327Z,100531.06
2023-09-29T11:47:58.431Z,100523.50
2023-09-29T11:49:00.568Z,100523.03
2023-09-29T11:50:03.672Z,100526.88
2023-09-29T11:51:09.726Z,100534.06
2023-09-29T11:52:11.739Z,100534.53
2023-09-29T11:53:14.668Z,100544.03
2023-09-29T11:54:16.622Z,100533.09
2023-09-29T11:55:18.905Z,100539.59
2023-09-29T11:56:21.851Z,100530.41
2023-09-29T11:57:24.007Z,100528.78
2023-09-29T11:58:25.983Z,100537.81
2023-09-29T11:59:27.993Z,100529.81
2023-09-29T12:00:30.838Z,100536.81
2023-09-29T12:01:33.009Z,100538.00
2023-09-29T12:02:35.794Z,100529.16
2023-09-29T12:03:39.227Z,100539.06
2023-09-29T12:04:41.266Z,100537.50
2023-09-29T12:05:45.533Z,100539.44
2023-09-29T12:06:47.557Z,100531.00
2023-09-29T12:07:49.642Z,100545.59